Dario Colombo

Chefscout - Benevento
9 Apr 2028
Sonntag
Verarbeitung

Persönlichkeit

Anpassungsfähigkeit (8) Ehrgeiz (4) Kontroverse (7) Loyalität (7) Druck (18) Professionalität (12) Fairness (15) Temperament (7)

Profil

Trainerstil Demokratisch
Lizenz Nationale B
Entschlossenheit 9
Menschenführung 6
Motivation 6
Disziplin 6
Arbeitszufriedenheit
100%
Ermüdung
0%
Rolle Chefscout
Gehalt 22.7K p/W
Vertrag 14.03.2030

Leistung

Verhalten Gut
Trainingseffektivität
44%
Spielerentwicklung
40%
Verletzungsprävention
35%
Taktische Umsetzung
45%

Letzte Ereignisse

Spieler begutachtet jetzt
Nahm an einer Scouting-Besprechung teil jetzt
Empfahl ein Transferziel jetzt
Nahm an einer Scouting-Besprechung teil jetzt
Nahm an einer Scouting-Besprechung teil jetzt
Spieler begutachtet jetzt
Spieler begutachtet 7T her
Spieler begutachtet 7T her

Aktuell beobachtet

131
Spieler Verein Status Fähigkeit Vertrauen Beobachtet Zuletzt beobachtet Letzte Stimme
Francesco Ruocco Mantova Aktiv 124 / 118 40% 1 08.04.2028 -
Thomas Battistella Trapani Aktiv 110 / 124 40% 1 08.04.2028 -
Seb Palmer-Houlden Gillingham Aktiv 99 / 103 40% 1 07.04.2028 -
Gabe Forsyth Colchester United Aktiv 104 / 113 40% 1 07.04.2028 -
Simone Ianesi Pianese Aktiv 115 / 108 40% 2 05.04.2028 -
Rubin Colwill Chesterfield Aktiv 121 / 123 40% 2 05.04.2028 -
Giovanni Corradini Ascoli Aktiv 116 / 117 40% 2 03.04.2028 -
Christos Kourfalidis Renate Aktiv 100 / 114 40% 1 01.04.2028 -
Alessandro Pellitteri Campobasso Aktiv 106 / 111 40% 1 01.04.2028 -
Amar Memić Viktoria Plzen Aktiv 147 / 127 40% 4 31.03.2028 -
Alberto Lunghi Torres Aktiv 99 / 104 40% 1 31.03.2028 -
Taylor Allen Wycombe Wanderers Aktiv 108 / 108 40% 2 30.03.2028 -
Freddi Greco Monopoli Aktiv 105 / 111 40% 1 30.03.2028 -
John Mercado Sparta Prague Aktiv 117 / 131 40% 5 29.03.2028 -
Riccardo Ladinetti Pontedera Aktiv 116 / 111 40% 1 29.03.2028 -
Emircan Gürlük Orenburg Aktiv 107 / 118 40% 2 23.03.2028 -
Matthew Smith Accrington Stanley Aktiv 119 / 115 40% 1 23.03.2028 -
Fabio Cariolato Arzignano Aktiv 118 / 109 40% 1 20.03.2028 -
Carmine Cretella Audace Cerignola Aktiv 98 / 104 40% 1 20.03.2028 -
Luca Schirone Pineto Aktiv 118 / 106 40% 1 19.03.2028 -
Giovanni Volpe Audace Cerignola Aktiv 110 / 105 40% 3 18.03.2028 -
Calum Kavanagh Oldham Athletic Aktiv 108 / 104 40% 1 18.03.2028 -
Marino Illescas Ceuta Aktiv 113 / 106 40% 2 17.03.2028 -
Andile Furman Platinum Stars Aktiv 92 / 110 40% 1 17.03.2028 -
Gabriele Pagliai Ascoli Aktiv 110 / 111 40% 1 16.03.2028 -
Lorenzo Maasland Casarano Aktiv 109 / 105 40% 2 12.03.2028 -
Jacopo Desogus AlbinoLeffe Aktiv 105 / 112 40% 1 12.03.2028 -
Baldovino Cimino Cosenza Aktiv 122 / 117 40% 1 11.03.2028 -
Connor Barrett Walsall Aktiv 109 / 114 40% 1 11.03.2028 -
Malcolm Ebiowei Gillingham Aktiv 109 / 102 40% 1 09.03.2028 -
Gabriel Pellegrino Lecco Aktiv 100 / 114 40% 1 09.03.2028 -
Mikhail Ignatov Sochi Aktiv 111 / 113 40% 1 08.03.2028 -
Makan Aïko Tondela Aktiv 119 / 123 40% 1 08.03.2028 -
Liam Bennett Cambridge United Aktiv 120 / 105 40% 1 07.03.2028 -
Saxon Earley Accrington Stanley Aktiv 104 / 107 40% 1 06.03.2028 -
Luca Mazzeo Picerno Aktiv 100 / 106 40% 1 06.03.2028 -
Zech Medley Fleetwood Town Aktiv 108 / 105 40% 1 04.03.2028 -
Pablo Vitali Pontedera Aktiv 102 / 108 40% 2 02.03.2028 -
Christian Pierobon Salernitana Aktiv 120 / 125 40% 1 01.03.2028 -
Raphael Kofler Südtirol Aktiv 120 / 121 40% 1 01.03.2028 -
Kevin Bright Alcione Milano Aktiv 103 / 103 40% 1 29.02.2028 -
Samuel Giovane Catanzaro Aktiv 125 / 125 40% 1 27.02.2028 -
James Furlong Walsall Aktiv 113 / 119 40% 1 25.02.2028 -
Enes Calhanoglu Tskhinvali Aktiv 92 / 108 40% 6 24.02.2028 -
Rodrigo Benítez Tranmere Rovers Aktiv 91 / 95 40% 1 24.02.2028 -
Miloš Brnović Arsenal Tula Aktiv 122 / 115 40% 1 23.02.2028 -
Simone Zanon Carrarese Aktiv 115 / 121 40% 1 22.02.2028 -
Jack Vale Sorrento Aktiv 106 / 96 40% 1 19.02.2028 -
Francesco Petito Dolomiti Bellunesi Aktiv 111 / 109 40% 1 18.02.2028 -
Luca Chierico Arezzo Aktiv 124 / 108 40% 1 16.02.2028 -
Samuele Regazzetti Livorno Aktiv 98 / 103 40% 1 16.02.2028 -
Mathías Tomás Puebla Aktiv 120 / 115 40% 1 14.02.2028 -
Andrea Bonetti Renate Aktiv 102 / 115 40% 1 14.02.2028 -
Guillaume Furrer Lecco Aktiv 111 / 110 40% 2 11.02.2028 -
Justin Haak LA Galaxy Aktiv 127 / 111 40% 2 09.02.2028 -
Alessandro Seghetti Campobasso Aktiv 109 / 113 40% 1 05.02.2028 -
Owen Gene Minnesota United FC Aktiv 125 / 124 40% 2 04.02.2028 -
Guljigit Alykulov Dinamo Minsk Aktiv 118 / 96 40% 3 04.02.2028 -
Matteo Maggio Reggiana Aktiv 114 / 119 40% 1 03.02.2028 -
Gustavo Viera Cerro Largo Aktiv 97 / 107 40% 3 01.02.2028 -
David Boateng Cobresal Abgelehnt 95 / 95 66% 1 01.01.2028 Ablehnen
Kwame Opoku Veres Abgelehnt 98 / 98 66% 1 01.01.2028 Ablehnen
Dillon Hoogewerf Radnicki 1923 Abgelehnt 99 / 102 66% 1 01.01.2028 Ablehnen
Andrea Bottaro Virtus Entella Aktiv 90 / 102 58% 1 01.01.2028 Befürworten
Jonathan Okoronkwo Torpedo Moscow Aktiv 113 / 105 40% 1 31.12.2027 -
Facundo Taborda Racing Aktiv 115 / 114 40% 1 29.12.2027 -
Ignacio Vallejos Colegiales Aktiv 99 / 110 40% 4 28.12.2027 -
Yegor Kortsov Dinamo Brest Aktiv 123 / 106 40% 1 28.12.2027 -
Santiago Valenzuela Chaco For Ever Aktiv 97 / 120 40% 2 27.12.2027 -
Sebastián Parada San Luis Aktiv 112 / 88 40% 1 27.12.2027 -
Victor Hernandez Santa Fe Aktiv 115 / 122 40% 2 26.12.2027 -
Fernando Martínez Central Córdoba SdE Aktiv 111 / 123 40% 4 25.12.2027 Beobachten
Joantony Carmona Dinamo Minsk Aktiv 105 / 97 40% 2 25.12.2027 -
Patrick Yazbek Nashville SC Aktiv 127 / 116 40% 3 24.12.2027 -
Santiago Corbo Miramar Misiones Aktiv 109 / 114 40% 1 24.12.2027 Mehr Infos nötig
Mauricio González Sporting Kansas City Aktiv 108 / 128 40% 1 22.12.2027 -
Santiago Patroni Defensores Unidos Aktiv 100 / 116 40% 2 21.12.2027 -
Daniel Barrea Godoy Cruz Aktiv 119 / 120 40% 3 20.12.2027 -
Christopher Richards Enyimba Aktiv 96 / 98 40% 2 16.12.2027 -
Augustine Nwaorisa Enyimba Aktiv 75 / 95 40% 1 16.12.2027 -
Hernest Malonga Kenya Police Aktiv 90 / 94 40% 1 13.12.2027 -
Fabián Suárez Chalares Aguilas Doradas Aktiv 115 / 123 40% 4 12.12.2027 -
Tomás Ramírez Morón Aktiv 102 / 126 40% 3 10.12.2027 -
Sebastián Ramírez Aguilas Doradas Aktiv 120 / 103 40% 1 10.12.2027 -
Franco Hanashiro Colegiales Aktiv 117 / 110 40% 2 08.12.2027 -
Gonzalo Gutiérrez San Martín Aktiv 109 / 94 40% 3 05.12.2027 -
Joaquín Valiente FC Dallas Aktiv 129 / 119 40% 1 03.12.2027 -
Yeferson Rodallega Envigado Aktiv 101 / 122 40% 1 30.11.2027 -
Didier Dawson Envigado Aktiv 113 / 109 40% 2 29.11.2027 -
Juan David Rueda Alianza Petrolera Aktiv 101 / 105 40% 4 28.11.2027 -
Willy Kumado San Diego Football Club Aktiv 104 / 107 40% 2 27.11.2027 -
Ghali Falke Shooting Stars Aktiv 97 / 105 40% 2 26.11.2027 -
Joseph Atule Barau Aktiv 79 / 89 40% 1 25.11.2027 -
Tosin Olawale El-Kanemi Warriors Aktiv 80 / 88 40% 2 22.11.2027 -
Valentin Pereyra Patronato Aktiv 119 / 103 40% 2 20.11.2027 -
Axel Encinas Union La Calera Aktiv 99 / 98 40% 2 16.11.2027 -
Luis Chávez Smorgon Aktiv 81 / 84 40% 1 14.11.2027 -
Francisco Perruzzi Aldosivi Aktiv 97 / 113 40% 1 12.11.2027 -
Chimobi Igwilo Rangers International Aktiv 85 / 98 40% 1 10.11.2027 -
Daniel Bassi Lillestrom Aktiv 120 / 120 40% 2 07.11.2027 -
Facundo Altamira Godoy Cruz Aktiv 138 / 131 40% 3 05.11.2027 -
Agustín De la Cuesta Racing Aktiv 95 / 108 40% 1 04.11.2027 -
Juan Esteban Ávalo Aguilas Doradas Aktiv 126 / 105 40% 1 03.11.2027 -
Santiago Martínez Godoy Cruz Aktiv 128 / 127 40% 1 02.11.2027 -
Adam Mustapha Shooting Stars Aktiv 74 / 84 40% 1 01.11.2027 -
Francisco Maidana Gimnasia y Esgrima Aktiv 120 / 106 40% 1 29.10.2027 -
John Valladares Santiago Wanderers Aktiv 82 / 98 40% 1 23.10.2027 -
Matías Arias Vélez Aktiv 101 / 123 40% 3 17.10.2027 -
Joel Ezra Enyimba Aktiv 81 / 107 40% 1 11.10.2027 -
Francisco Funes Los Andes Aktiv 96 / 104 40% 1 05.10.2027 -
Amza Moubarack Bandari Aktiv 79 / 93 40% 1 01.10.2027 -
Ifeanyi Assurance Rangers International Aktiv 87 / 103 40% 1 27.09.2027 -
Andrés Gigena San Marcos de Arica Aktiv 107 / 100 40% 1 24.09.2027 -
Alfred Mazurich Lida Aktiv 100 / 84 40% 1 21.09.2027 -
Diego Vásquez Agropecuario Argentino Aktiv 117 / 105 40% 1 20.09.2027 -
Ovella Ochieng KCB Aktiv 98 / 82 40% 1 20.09.2027 -
Zakaria Ajoughlal Renaissance Aktiv 101 / 94 40% 1 18.09.2027 -
Youssef Dalouzi Renaissance Aktiv 83 / 89 40% 1 14.09.2027 -
Jonathan Baeza La Luz Aktiv 103 / 96 40% 1 12.09.2027 -
Gabriel Rincon Atletico Venezuela Aktiv 99 / 99 40% 1 07.09.2027 -
Agustín Maidana San Marcos de Arica Aktiv 94 / 111 40% 1 07.09.2027 -
Enock Morrison Gor Mahia Aktiv 100 / 94 40% 1 31.08.2027 -
Job Ochieng Real Sociedad Aktiv 100 / 119 40% 1 02.08.2027 -
Luca Moro Padova Aktiv 119 / 128 40% 1 02.08.2027 -
Bernat Guiu Virtus Entella Aktiv 122 / 110 40% 1 26.07.2027 -
Albion Rrahmani Venezia Aktiv 124 / 137 40% 1 19.07.2027 -
Stiven Shpendi Empoli Aktiv 132 / 130 40% 2 13.07.2027 -
Matteo Francesconi Cesena Aktiv 134 / 132 40% 1 22.06.2027 -
Samuel Asamoah Racing Abgelehnt 104 / 110 66% 1 01.06.2027 Ablehnen
Ali Sobhi Al Ahly Abgelehnt 104 / 105 66% 1 01.06.2027 Ablehnen
Idrissa Touré Monza Aktiv 143 / 140 40% 1 01.08.2026 -